sensor_id;sensor_type;location;lat;lon;timestamp;temperature;humidity
5278;DHT22;2662;51.194;6.614;2024-03-08T00:02:16;4.40;99.90
5278;DHT22;2662;51.194;6.614;2024-03-08T00:04:52;4.30;99.90
5278;DHT22;2662;51.194;6.614;2024-03-08T00:07:19;4.30;99.90
5278;DHT22;2662;51.194;6.614;2024-03-08T00:09:47;4.30;99.90
5278;DHT22;2662;51.194;6.614;2024-03-08T00:12:14;4.20;99.90
5278;DHT22;2662;51.194;6.614;2024-03-08T00:14:41;4.20;99.90
5278;DHT22;2662;51.194;6.614;2024-03-08T00:17:08;4.20;99.90
5278;DHT22;2662;51.194;6.614;2024-03-08T00:19:39;4.20;99.90
5278;DHT22;2662;51.194;6.614;2024-03-08T00:22:08;4.10;99.90
5278;DHT22;2662;51.194;6.614;2024-03-08T00:24:35;4.10;99.90
5278;DHT22;2662;51.194;6.614;2024-03-08T00:27:03;4.10;99.90
5278;DHT22;2662;51.194;6.614;2024-03-08T00:29:31;4.10;99.90
5278;DHT22;2662;51.194;6.614;2024-03-08T00:31:58;4.00;99.90
5278;DHT22;2662;51.194;6.614;2024-03-08T00:34:25;4.00;99.90
5278;DHT22;2662;51.194;6.614;2024-03-08T00:36:55;4.00;99.90
5278;DHT22;2662;51.194;6.614;2024-03-08T00:39:24;4.00;99.90
5278;DHT22;2662;51.194;6.614;2024-03-08T00:41:51;4.00;99.90
5278;DHT22;2662;51.194;6.614;2024-03-08T00:44:19;4.00;99.90
5278;DHT22;2662;51.194;6.614;2024-03-08T00:46:46;3.90;99.90
5278;DHT22;2662;51.194;6.614;2024-03-08T00:49:13;3.90;99.90
5278;DHT22;2662;51.194;6.614;2024-03-08T00:51:41;3.90;99.90
5278;DHT22;2662;51.194;6.614;2024-03-08T00:54:09;3.90;99.90
5278;DHT22;2662;51.194;6.614;2024-03-08T00:56:37;3.90;99.90
5278;DHT22;2662;51.194;6.614;2024-03-08T00:59:04;3.90;99.90
5278;DHT22;2662;51.194;6.614;2024-03-08T01:01:33;3.90;99.90
5278;DHT22;2662;51.194;6.614;2024-03-08T01:04:00;3.80;99.90
5278;DHT22;2662;51.194;6.614;2024-03-08T01:06:27;3.80;99.90
5278;DHT22;2662;51.194;6.614;2024-03-08T01:08:57;3.80;99.90
5278;DHT22;2662;51.194;6.614;2024-03-08T01:11:24;3.90;99.90
5278;DHT22;2662;51.194;6.614;2024-03-08T01:13:52;3.80;99.90
5278;DHT22;2662;51.194;6.614;2024-03-08T01:16:19;3.90;99.90
5278;DHT22;2662;51.194;6.614;2024-03-08T01:18:49;3.90;99.90
5278;DHT22;2662;51.194;6.614;2024-03-08T01:21:16;3.80;99.90
5278;DHT22;2662;51.194;6.614;2024-03-08T01:23:43;3.80;99.90
5278;DHT22;2662;51.194;6.614;2024-03-08T01:26:10;3.80;99.90
5278;DHT22;2662;51.194;6.614;2024-03-08T01:28:37;3.80;99.90
5278;DHT22;2662;51.194;6.614;2024-03-08T01:31:05;3.80;99.90
5278;DHT22;2662;51.194;6.614;2024-03-08T01:33:32;3.80;99.90
5278;DHT22;2662;51.194;6.614;2024-03-08T01:35:59;3.80;99.90
5278;DHT22;2662;51.194;6.614;2024-03-08T01:38:26;3.80;99.90
5278;DHT22;2662;51.194;6.614;2024-03-08T01:40:56;3.70;99.90
5278;DHT22;2662;51.194;6.614;2024-03-08T01:43:26;3.70;99.90
5278;DHT22;2662;51.194;6.614;2024-03-08T01:45:56;3.70;99.90
5278;DHT22;2662;51.194;6.614;2024-03-08T01:48:25;3.70;99.90
5278;DHT22;2662;51.194;6.614;2024-03-08T01:50:53;3.70;99.90
5278;DHT22;2662;51.194;6.614;2024-03-08T01:53:22;3.70;99.90
5278;DHT22;2662;51.194;6.614;2024-03-08T01:55:53;3.70;99.90
5278;DHT22;2662;51.194;6.614;2024-03-08T01:58:21;3.70;99.90
5278;DHT22;2662;51.194;6.614;2024-03-08T02:00:53;3.70;99.90
5278;DHT22;2662;51.194;6.614;2024-03-08T02:03:20;3.70;99.90
5278;DHT22;2662;51.194;6.614;2024-03-08T02:05:49;3.60;99.90
5278;DHT22;2662;51.194;6.614;2024-03-08T02:08:17;3.60;99.90
5278;DHT22;2662;51.194;6.614;2024-03-08T02:10:47;3.60;99.90
5278;DHT22;2662;51.194;6.614;2024-03-08T02:13:16;3.60;99.90
5278;DHT22;2662;51.194;6.614;2024-03-08T02:15:50;3.60;99.90
5278;DHT22;2662;51.194;6.614;2024-03-08T02:18:17;3.50;99.90
5278;DHT22;2662;51.194;6.614;2024-03-08T02:20:47;3.50;99.90
5278;DHT22;2662;51.194;6.614;2024-03-08T02:23:14;3.50;99.90
5278;DHT22;2662;51.194;6.614;2024-03-08T02:25:41;3.50;99.90
5278;DHT22;2662;51.194;6.614;2024-03-08T02:28:11;3.50;99.90
5278;DHT22;2662;51.194;6.614;2024-03-08T02:30:38;3.50;99.90
5278;DHT22;2662;51.194;6.614;2024-03-08T02:33:06;3.50;99.90
5278;DHT22;2662;51.194;6.614;2024-03-08T02:35:36;3.50;99.90
5278;DHT22;2662;51.194;6.614;2024-03-08T02:38:05;3.40;99.90
5278;DHT22;2662;51.194;6.614;2024-03-08T02:40:35;3.40;99.90
5278;DHT22;2662;51.194;6.614;2024-03-08T02:43:03;3.40;99.90
5278;DHT22;2662;51.194;6.614;2024-03-08T02:45:30;3.40;99.90
5278;DHT22;2662;51.194;6.614;2024-03-08T02:47:58;3.30;99.90
5278;DHT22;2662;51.194;6.614;2024-03-08T02:50:25;3.30;99.90
5278;DHT22;2662;51.194;6.614;2024-03-08T02:52:52;3.30;99.90
5278;DHT22;2662;51.194;6.614;2024-03-08T02:55:21;3.20;99.90
5278;DHT22;2662;51.194;6.614;2024-03-08T02:57:48;3.20;99.90
5278;DHT22;2662;51.194;6.614;2024-03-08T03:00:15;3.20;99.90
5278;DHT22;2662;51.194;6.614;2024-03-08T03:02:44;3.30;99.90
5278;DHT22;2662;51.194;6.614;2024-03-08T03:05:11;3.20;99.90
5278;DHT22;2662;51.194;6.614;2024-03-08T03:07:39;3.20;99.90
5278;DHT22;2662;51.194;6.614;2024-03-08T03:10:08;3.20;99.90
5278;DHT22;2662;51.194;6.614;2024-03-08T03:12:38;3.20;99.90
5278;DHT22;2662;51.194;6.614;2024-03-08T03:15:05;3.20;99.90
5278;DHT22;2662;51.194;6.614;2024-03-08T03:17:33;3.10;99.90
5278;DHT22;2662;51.194;6.614;2024-03-08T03:20:00;3.10;99.90
5278;DHT22;2662;51.194;6.614;2024-03-08T03:22:34;3.10;99.90
5278;DHT22;2662;51.194;6.614;2024-03-08T03:25:01;3.10;99.90
5278;DHT22;2662;51.194;6.614;2024-03-08T03:27:31;3.10;99.90
5278;DHT22;2662;51.194;6.614;2024-03-08T03:29:59;3.10;99.90
5278;DHT22;2662;51.194;6.614;2024-03-08T03:32:46;3.10;99.90
5278;DHT22;2662;51.194;6.614;2024-03-08T03:35:15;3.00;99.90
5278;DHT22;2662;51.194;6.614;2024-03-08T03:37:42;2.90;99.90
5278;DHT22;2662;51.194;6.614;2024-03-08T03:40:12;2.90;99.90
5278;DHT22;2662;51.194;6.614;2024-03-08T03:42:39;2.90;99.90
5278;DHT22;2662;51.194;6.614;2024-03-08T03:45:09;2.90;99.90
5278;DHT22;2662;51.194;6.614;2024-03-08T03:47:36;2.90;99.90
5278;DHT22;2662;51.194;6.614;2024-03-08T03:50:06;2.90;99.90
5278;DHT22;2662;51.194;6.614;2024-03-08T03:52:35;2.80;99.90
5278;DHT22;2662;51.194;6.614;2024-03-08T03:55:02;2.80;99.90
5278;DHT22;2662;51.194;6.614;2024-03-08T03:57:30;2.70;99.90
5278;DHT22;2662;51.194;6.614;2024-03-08T03:59:57;2.70;99.90
5278;DHT22;2662;51.194;6.614;2024-03-08T04:02:25;2.70;99.90
5278;DHT22;2662;51.194;6.614;2024-03-08T04:04:52;2.80;99.90
5278;DHT22;2662;51.194;6.614;2024-03-08T04:07:20;2.80;99.90
5278;DHT22;2662;51.194;6.614;2024-03-08T04:09:47;2.80;99.90
5278;DHT22;2662;51.194;6.614;2024-03-08T04:12:15;2.80;99.90
5278;DHT22;2662;51.194;6.614;2024-03-08T04:14:42;2.80;99.90
5278;DHT22;2662;51.194;6.614;2024-03-08T04:17:09;2.80;99.90
5278;DHT22;2662;51.194;6.614;2024-03-08T04:19:39;2.80;99.90
5278;DHT22;2662;51.194;6.614;2024-03-08T04:22:06;2.70;99.90
5278;DHT22;2662;51.194;6.614;2024-03-08T04:24:33;2.80;99.90
5278;DHT22;2662;51.194;6.614;2024-03-08T04:27:01;2.80;99.90
5278;DHT22;2662;51.194;6.614;2024-03-08T04:29:28;2.80;99.90
5278;DHT22;2662;51.194;6.614;2024-03-08T04:31:54;2.80;99.90
5278;DHT22;2662;51.194;6.614;2024-03-08T04:34:21;2.90;99.90
5278;DHT22;2662;51.194;6.614;2024-03-08T04:36:51;2.90;99.90
5278;DHT22;2662;51.194;6.614;2024-03-08T04:39:18;2.80;99.90
5278;DHT22;2662;51.194;6.614;2024-03-08T04:41:46;2.80;99.90
5278;DHT22;2662;51.194;6.614;2024-03-08T04:44:14;2.80;99.90
5278;DHT22;2662;51.194;6.614;2024-03-08T04:46:43;2.80;99.90
5278;DHT22;2662;51.194;6.614;2024-03-08T04:49:09;2.80;99.90
5278;DHT22;2662;51.194;6.614;2024-03-08T04:51:37;2.80;99.90
5278;DHT22;2662;51.194;6.614;2024-03-08T04:54:05;2.80;99.90
5278;DHT22;2662;51.194;6.614;2024-03-08T04:56:32;2.70;99.90
5278;DHT22;2662;51.194;6.614;2024-03-08T04:58:59;2.70;99.90
5278;DHT22;2662;51.194;6.614;2024-03-08T05:01:26;2.80;99.90
5278;DHT22;2662;51.194;6.614;2024-03-08T05:03:52;2.80;99.90
5278;DHT22;2662;51.194;6.614;2024-03-08T05:06:20;2.80;99.90
5278;DHT22;2662;51.194;6.614;2024-03-08T05:08:48;2.80;99.90
5278;DHT22;2662;51.194;6.614;2024-03-08T05:11:17;2.70;99.90
5278;DHT22;2662;51.194;6.614;2024-03-08T05:13:44;2.70;99.90
5278;DHT22;2662;51.194;6.614;2024-03-08T05:16:12;2.70;99.90
5278;DHT22;2662;51.194;6.614;2024-03-08T05:18:41;2.70;99.90
5278;DHT22;2662;51.194;6.614;2024-03-08T05:21:08;2.60;99.90
5278;DHT22;2662;51.194;6.614;2024-03-08T05:23:35;2.60;99.90
5278;DHT22;2662;51.194;6.614;2024-03-08T05:26:04;2.60;99.90
5278;DHT22;2662;51.194;6.614;2024-03-08T05:28:32;2.60;99.90
5278;DHT22;2662;51.194;6.614;2024-03-08T05:30:59;2.50;99.90
5278;DHT22;2662;51.194;6.614;2024-03-08T05:33:27;2.50;99.90
5278;DHT22;2662;51.194;6.614;2024-03-08T05:35:53;2.50;99.90
5278;DHT22;2662;51.194;6.614;2024-03-08T05:38:21;2.60;99.90
5278;DHT22;2662;51.194;6.614;2024-03-08T05:40:48;2.50;99.90
5278;DHT22;2662;51.194;6.614;2024-03-08T05:43:16;2.50;99.90
5278;DHT22;2662;51.194;6.614;2024-03-08T05:45:46;2.60;99.90
5278;DHT22;2662;51.194;6.614;2024-03-08T05:48:13;2.60;99.90
5278;DHT22;2662;51.194;6.614;2024-03-08T05:50:40;2.60;99.90
5278;DHT22;2662;51.194;6.614;2024-03-08T05:53:10;2.60;99.90
5278;DHT22;2662;51.194;6.614;2024-03-08T05:55:37;2.60;99.90
5278;DHT22;2662;51.194;6.614;2024-03-08T05:58:04;2.60;99.90
5278;DHT22;2662;51.194;6.614;2024-03-08T06:00:33;2.50;99.90
5278;DHT22;2662;51.194;6.614;2024-03-08T06:03:03;2.50;99.90
5278;DHT22;2662;51.194;6.614;2024-03-08T06:05:31;2.50;99.90
5278;DHT22;2662;51.194;6.614;2024-03-08T06:07:59;2.50;99.90
5278;DHT22;2662;51.194;6.614;2024-03-08T06:10:26;2.40;99.90
5278;DHT22;2662;51.194;6.614;2024-03-08T06:12:53;2.50;99.90
5278;DHT22;2662;51.194;6.614;2024-03-08T06:15:20;2.50;99.90
5278;DHT22;2662;51.194;6.614;2024-03-08T06:17:47;2.50;99.90
5278;DHT22;2662;51.194;6.614;2024-03-08T06:20:15;2.60;99.90
5278;DHT22;2662;51.194;6.614;2024-03-08T06:22:42;2.70;99.90
5278;DHT22;2662;51.194;6.614;2024-03-08T06:25:10;2.70;99.90
5278;DHT22;2662;51.194;6.614;2024-03-08T06:27:39;2.80;99.90
5278;DHT22;2662;51.194;6.614;2024-03-08T06:30:08;2.90;99.90
5278;DHT22;2662;51.194;6.614;2024-03-08T06:32:37;3.00;99.90
5278;DHT22;2662;51.194;6.614;2024-03-08T06:35:05;3.30;99.90
5278;DHT22;2662;51.194;6.614;2024-03-08T06:37:34;3.50;99.90
5278;DHT22;2662;51.194;6.614;2024-03-08T06:40:02;4.00;99.90
5278;DHT22;2662;51.194;6.614;2024-03-08T06:42:30;4.60;99.90
5278;DHT22;2662;51.194;6.614;2024-03-08T06:44:59;5.40;99.90
5278;DHT22;2662;51.194;6.614;2024-03-08T06:47:30;6.20;99.90
5278;DHT22;2662;51.194;6.614;2024-03-08T06:49:58;7.00;99.90
5278;DHT22;2662;51.194;6.614;2024-03-08T06:52:25;7.70;99.90
5278;DHT22;2662;51.194;6.614;2024-03-08T06:54:54;8.00;99.90
5278;DHT22;2662;51.194;6.614;2024-03-08T06:57:22;8.80;99.90
5278;DHT22;2662;51.194;6.614;2024-03-08T06:59:49;9.40;99.90
5278;DHT22;2662;51.194;6.614;2024-03-08T07:02:17;9.90;99.90
5278;DHT22;2662;51.194;6.614;2024-03-08T07:04:45;10.20;99.90
5278;DHT22;2662;51.194;6.614;2024-03-08T07:07:12;10.40;99.90
5278;DHT22;2662;51.194;6.614;2024-03-08T07:09:39;10.60;99.90
5278;DHT22;2662;51.194;6.614;2024-03-08T07:12:10;11.10;99.90
5278;DHT22;2662;51.194;6.614;2024-03-08T07:14:39;11.70;99.90
5278;DHT22;2662;51.194;6.614;2024-03-08T07:17:06;12.30;99.90
5278;DHT22;2662;51.194;6.614;2024-03-08T07:19:34;12.50;99.90
5278;DHT22;2662;51.194;6.614;2024-03-08T07:22:03;12.60;99.90
5278;DHT22;2662;51.194;6.614;2024-03-08T07:24:34;12.60;99.90
5278;DHT22;2662;51.194;6.614;2024-03-08T07:27:17;13.00;99.90
5278;DHT22;2662;51.194;6.614;2024-03-08T07:29:48;13.70;99.90
5278;DHT22;2662;51.194;6.614;2024-03-08T07:32:15;14.40;99.40
5278;DHT22;2662;51.194;6.614;2024-03-08T07:34:47;14.40;97.70
5278;DHT22;2662;51.194;6.614;2024-03-08T07:37:16;14.50;96.80
5278;DHT22;2662;51.194;6.614;2024-03-08T07:39:44;14.30;96.60
5278;DHT22;2662;51.194;6.614;2024-03-08T07:42:11;13.80;96.60
5278;DHT22;2662;51.194;6.614;2024-03-08T07:44:40;13.00;97.20
5278;DHT22;2662;51.194;6.614;2024-03-08T07:47:07;12.70;97.40
5278;DHT22;2662;51.194;6.614;2024-03-08T07:49:35;12.90;97.60
5278;DHT22;2662;51.194;6.614;2024-03-08T07:52:03;13.30;97.90
5278;DHT22;2662;51.194;6.614;2024-03-08T07:54:34;13.50;97.30
5278;DHT22;2662;51.194;6.614;2024-03-08T07:57:01;13.50;96.60
5278;DHT22;2662;51.194;6.614;2024-03-08T07:59:29;13.10;96.00
5278;DHT22;2662;51.194;6.614;2024-03-08T08:01:58;13.40;97.10
5278;DHT22;2662;51.194;6.614;2024-03-08T08:04:25;13.70;96.80
5278;DHT22;2662;51.194;6.614;2024-03-08T08:06:53;14.10;96.40
5278;DHT22;2662;51.194;6.614;2024-03-08T08:09:21;14.60;96.60
5278;DHT22;2662;51.194;6.614;2024-03-08T08:11:54;15.00;95.10
5278;DHT22;2662;51.194;6.614;2024-03-08T08:14:21;15.40;95.40
5278;DHT22;2662;51.194;6.614;2024-03-08T08:16:48;15.70;94.20
5278;DHT22;2662;51.194;6.614;2024-03-08T08:19:19;15.50;93.80
5278;DHT22;2662;51.194;6.614;2024-03-08T08:21:46;15.40;94.00
5278;DHT22;2662;51.194;6.614;2024-03-08T08:24:14;15.50;94.00
5278;DHT22;2662;51.194;6.614;2024-03-08T08:26:42;15.60;93.60
5278;DHT22;2662;51.194;6.614;2024-03-08T08:29:10;16.00;93.60
5278;DHT22;2662;51.194;6.614;2024-03-08T08:31:38;16.20;93.30
5278;DHT22;2662;51.194;6.614;2024-03-08T08:34:05;15.80;92.70
5278;DHT22;2662;51.194;6.614;2024-03-08T08:36:34;16.10;93.00
5278;DHT22;2662;51.194;6.614;2024-03-08T08:39:02;15.60;92.30
5278;DHT22;2662;51.194;6.614;2024-03-08T08:41:30;15.70;93.30
5278;DHT22;2662;51.194;6.614;2024-03-08T08:43:57;16.30;93.40
5278;DHT22;2662;51.194;6.614;2024-03-08T08:46:25;16.20;92.40
5278;DHT22;2662;51.194;6.614;2024-03-08T08:48:52;16.30;92.50
5278;DHT22;2662;51.194;6.614;2024-03-08T08:51:19;16.90;92.00
5278;DHT22;2662;51.194;6.614;2024-03-08T08:53:48;17.00;91.80
5278;DHT22;2662;51.194;6.614;2024-03-08T08:56:17;16.50;90.70
5278;DHT22;2662;51.194;6.614;2024-03-08T08:58:44;15.60;91.20
5278;DHT22;2662;51.194;6.614;2024-03-08T09:01:12;15.20;92.00
5278;DHT22;2662;51.194;6.614;2024-03-08T09:03:39;15.30;92.00
5278;DHT22;2662;51.194;6.614;2024-03-08T09:06:07;15.20;92.00
5278;DHT22;2662;51.194;6.614;2024-03-08T09:08:35;14.80;91.50
5278;DHT22;2662;51.194;6.614;2024-03-08T09:11:05;14.40;91.90
5278;DHT22;2662;51.194;6.614;2024-03-08T09:13:34;14.60;93.70
5278;DHT22;2662;51.194;6.614;2024-03-08T09:16:05;15.60;93.20
5278;DHT22;2662;51.194;6.614;2024-03-08T09:18:32;16.00;92.30
5278;DHT22;2662;51.194;6.614;2024-03-08T09:20:59;16.20;91.20
5278;DHT22;2662;51.194;6.614;2024-03-08T09:23:27;16.10;91.10
5278;DHT22;2662;51.194;6.614;2024-03-08T09:25:56;16.00;90.40
5278;DHT22;2662;51.194;6.614;2024-03-08T09:28:25;15.40;90.50
5278;DHT22;2662;51.194;6.614;2024-03-08T09:30:53;15.20;91.40
5278;DHT22;2662;51.194;6.614;2024-03-08T09:33:20;15.40;90.90
5278;DHT22;2662;51.194;6.614;2024-03-08T09:35:48;15.10;91.80
5278;DHT22;2662;51.194;6.614;2024-03-08T09:38:17;14.80;91.60
5278;DHT22;2662;51.194;6.614;2024-03-08T09:40:47;14.20;91.20
5278;DHT22;2662;51.194;6.614;2024-03-08T09:43:14;14.70;92.40
5278;DHT22;2662;51.194;6.614;2024-03-08T09:45:43;14.70;92.10
5278;DHT22;2662;51.194;6.614;2024-03-08T09:48:13;14.90;92.90
5278;DHT22;2662;51.194;6.614;2024-03-08T09:50:41;14.70;92.10
5278;DHT22;2662;51.194;6.614;2024-03-08T09:53:08;14.50;92.20
5278;DHT22;2662;51.194;6.614;2024-03-08T09:55:36;14.00;93.00
5278;DHT22;2662;51.194;6.614;2024-03-08T09:58:06;14.00;93.20
5278;DHT22;2662;51.194;6.614;2024-03-08T10:00:51;14.30;92.90
5278;DHT22;2662;51.194;6.614;2024-03-08T10:03:19;14.50;94.40
5278;DHT22;2662;51.194;6.614;2024-03-08T10:05:47;14.60;93.00
5278;DHT22;2662;51.194;6.614;2024-03-08T10:08:15;14.80;92.70
5278;DHT22;2662;51.194;6.614;2024-03-08T10:10:42;14.80;92.70
5278;DHT22;2662;51.194;6.614;2024-03-08T10:13:10;14.60;92.50
5278;DHT22;2662;51.194;6.614;2024-03-08T10:15:39;14.10;92.40
5278;DHT22;2662;51.194;6.614;2024-03-08T10:18:07;13.50;92.40
5278;DHT22;2662;51.194;6.614;2024-03-08T10:20:35;14.00;93.80
5278;DHT22;2662;51.194;6.614;2024-03-08T10:23:03;14.00;94.10
5278;DHT22;2662;51.194;6.614;2024-03-08T10:25:30;13.90;93.50
5278;DHT22;2662;51.194;6.614;2024-03-08T10:27:57;13.90;93.80
5278;DHT22;2662;51.194;6.614;2024-03-08T10:30:24;14.30;93.00
5278;DHT22;2662;51.194;6.614;2024-03-08T10:32:53;14.40;93.80
5278;DHT22;2662;51.194;6.614;2024-03-08T10:35:22;14.50;92.70
5278;DHT22;2662;51.194;6.614;2024-03-08T10:37:51;14.50;93.20
5278;DHT22;2662;51.194;6.614;2024-03-08T10:40:25;14.20;92.80
5278;DHT22;2662;51.194;6.614;2024-03-08T10:42:53;14.20;93.20
5278;DHT22;2662;51.194;6.614;2024-03-08T10:45:30;14.40;92.90
5278;DHT22;2662;51.194;6.614;2024-03-08T10:48:08;13.90;92.50
5278;DHT22;2662;51.194;6.614;2024-03-08T10:50:38;13.30;93.70
5278;DHT22;2662;51.194;6.614;2024-03-08T10:53:06;12.90;93.80
5278;DHT22;2662;51.194;6.614;2024-03-08T10:55:33;12.50;94.10
5278;DHT22;2662;51.194;6.614;2024-03-08T10:58:00;12.10;94.70
5278;DHT22;2662;51.194;6.614;2024-03-08T11:00:27;11.80;95.40
5278;DHT22;2662;51.194;6.614;2024-03-08T11:02:56;11.40;95.80
5278;DHT22;2662;51.194;6.614;2024-03-08T11:05:38;11.10;95.50
5278;DHT22;2662;51.194;6.614;2024-03-08T11:08:17;11.00;96.60
5278;DHT22;2662;51.194;6.614;2024-03-08T11:10:48;11.10;96.90
5278;DHT22;2662;51.194;6.614;2024-03-08T11:13:33;11.10;98.60
5278;DHT22;2662;51.194;6.614;2024-03-08T11:16:00;11.30;99.00
5278;DHT22;2662;51.194;6.614;2024-03-08T11:18:32;11.40;98.00
5278;DHT22;2662;51.194;6.614;2024-03-08T11:21:04;11.60;97.90
5278;DHT22;2662;51.194;6.614;2024-03-08T11:23:32;11.70;98.60
5278;DHT22;2662;51.194;6.614;2024-03-08T11:26:00;11.70;96.90
5278;DHT22;2662;51.194;6.614;2024-03-08T11:28:31;11.60;97.40
5278;DHT22;2662;51.194;6.614;2024-03-08T11:31:26;11.70;97.20
5278;DHT22;2662;51.194;6.614;2024-03-08T11:33:54;11.70;96.70
5278;DHT22;2662;51.194;6.614;2024-03-08T11:36:24;11.80;97.20
5278;DHT22;2662;51.194;6.614;2024-03-08T11:38:52;12.00;96.80
5278;DHT22;2662;51.194;6.614;2024-03-08T11:41:22;11.90;96.70
5278;DHT22;2662;51.194;6.614;2024-03-08T11:44:02;11.80;96.60
5278;DHT22;2662;51.194;6.614;2024-03-08T11:46:31;11.80;97.50
5278;DHT22;2662;51.194;6.614;2024-03-08T11:49:00;11.70;98.00
5278;DHT22;2662;51.194;6.614;2024-03-08T11:51:30;11.60;97.30
5278;DHT22;2662;51.194;6.614;2024-03-08T11:53:58;11.80;97.50
5278;DHT22;2662;51.194;6.614;2024-03-08T11:56:32;11.80;97.70
5278;DHT22;2662;51.194;6.614;2024-03-08T11:59:00;11.90;97.50
5278;DHT22;2662;51.194;6.614;2024-03-08T12:01:27;11.90;97.00
5278;DHT22;2662;51.194;6.614;2024-03-08T12:03:54;12.00;97.20
5278;DHT22;2662;51.194;6.614;2024-03-08T12:06:25;12.20;96.90
5278;DHT22;2662;51.194;6.614;2024-03-08T12:08:56;12.20;96.90
5278;DHT22;2662;51.194;6.614;2024-03-08T12:11:23;12.20;97.80
5278;DHT22;2662;51.194;6.614;2024-03-08T12:13:50;12.20;97.90
5278;DHT22;2662;51.194;6.614;2024-03-08T12:16:18;12.20;97.60
5278;DHT22;2662;51.194;6.614;2024-03-08T12:18:45;12.30;97.30
5278;DHT22;2662;51.194;6.614;2024-03-08T12:21:15;12.30;97.00
5278;DHT22;2662;51.194;6.614;2024-03-08T12:23:45;12.30;96.30
5278;DHT22;2662;51.194;6.614;2024-03-08T12:26:18;12.40;97.50
5278;DHT22;2662;51.194;6.614;2024-03-08T12:28:52;12.40;96.60
5278;DHT22;2662;51.194;6.614;2024-03-08T12:31:19;12.50;96.50
5278;DHT22;2662;51.194;6.614;2024-03-08T12:33:50;12.50;96.50
5278;DHT22;2662;51.194;6.614;2024-03-08T12:36:18;12.60;97.10
5278;DHT22;2662;51.194;6.614;2024-03-08T12:38:49;12.60;97.00
5278;DHT22;2662;51.194;6.614;2024-03-08T12:41:18;12.70;97.10
5278;DHT22;2662;51.194;6.614;2024-03-08T12:43:46;12.60;97.30
5278;DHT22;2662;51.194;6.614;2024-03-08T12:46:14;12.70;96.40
5278;DHT22;2662;51.194;6.614;2024-03-08T12:48:42;12.60;96.70
5278;DHT22;2662;51.194;6.614;2024-03-08T12:51:12;12.60;95.50
5278;DHT22;2662;51.194;6.614;2024-03-08T12:53:41;12.70;95.60
5278;DHT22;2662;51.194;6.614;2024-03-08T12:56:09;12.70;96.90
5278;DHT22;2662;51.194;6.614;2024-03-08T12:58:39;12.70;96.90
5278;DHT22;2662;51.194;6.614;2024-03-08T13:01:06;12.70;98.00
5278;DHT22;2662;51.194;6.614;2024-03-08T13:03:34;12.90;97.50
5278;DHT22;2662;51.194;6.614;2024-03-08T13:06:01;13.10;97.00
5278;DHT22;2662;51.194;6.614;2024-03-08T13:08:34;13.20;98.30
5278;DHT22;2662;51.194;6.614;2024-03-08T13:11:01;13.10;95.80
5278;DHT22;2662;51.194;6.614;2024-03-08T13:13:29;13.10;95.50
5278;DHT22;2662;51.194;6.614;2024-03-08T13:16:00;13.10;95.10
5278;DHT22;2662;51.194;6.614;2024-03-08T13:18:27;13.20;96.10
5278;DHT22;2662;51.194;6.614;2024-03-08T13:20:54;13.20;94.30
5278;DHT22;2662;51.194;6.614;2024-03-08T13:23:23;13.20;94.40
5278;DHT22;2662;51.194;6.614;2024-03-08T13:25:49;13.30;96.80
5278;DHT22;2662;51.194;6.614;2024-03-08T13:28:17;13.40;97.40
5278;DHT22;2662;51.194;6.614;2024-03-08T13:30:48;13.60;96.70
5278;DHT22;2662;51.194;6.614;2024-03-08T13:33:19;13.70;96.00
5278;DHT22;2662;51.194;6.614;2024-03-08T13:35:46;13.60;93.80
5278;DHT22;2662;51.194;6.614;2024-03-08T13:38:13;13.50;94.90
5278;DHT22;2662;51.194;6.614;2024-03-08T13:40:40;13.50;94.60
5278;DHT22;2662;51.194;6.614;2024-03-08T13:43:08;13.60;94.60
5278;DHT22;2662;51.194;6.614;2024-03-08T13:45:35;13.60;94.40
5278;DHT22;2662;51.194;6.614;2024-03-08T13:48:04;13.60;94.80
5278;DHT22;2662;51.194;6.614;2024-03-08T13:50:33;13.60;93.80
5278;DHT22;2662;51.194;6.614;2024-03-08T13:53:00;13.40;94.70
5278;DHT22;2662;51.194;6.614;2024-03-08T13:55:27;13.30;94.10
5278;DHT22;2662;51.194;6.614;2024-03-08T13:57:55;13.20;94.10
5278;DHT22;2662;51.194;6.614;2024-03-08T14:00:24;13.20;93.90
5278;DHT22;2662;51.194;6.614;2024-03-08T14:02:58;13.30;94.20
5278;DHT22;2662;51.194;6.614;2024-03-08T14:05:25;13.20;93.80
5278;DHT22;2662;51.194;6.614;2024-03-08T14:07:53;13.30;94.80
5278;DHT22;2662;51.194;6.614;2024-03-08T14:10:21;13.40;94.10
5278;DHT22;2662;51.194;6.614;2024-03-08T14:12:48;13.40;95.30
5278;DHT22;2662;51.194;6.614;2024-03-08T14:15:16;13.40;94.40
5278;DHT22;2662;51.194;6.614;2024-03-08T14:17:43;13.40;93.20
5278;DHT22;2662;51.194;6.614;2024-03-08T14:20:11;13.40;93.10
5278;DHT22;2662;51.194;6.614;2024-03-08T14:22:39;13.40;94.50
5278;DHT22;2662;51.194;6.614;2024-03-08T14:25:08;13.50;94.10
5278;DHT22;2662;51.194;6.614;2024-03-08T14:27:43;13.30;92.90
5278;DHT22;2662;51.194;6.614;2024-03-08T14:30:11;13.20;92.80
5278;DHT22;2662;51.194;6.614;2024-03-08T14:32:38;13.10;93.30
5278;DHT22;2662;51.194;6.614;2024-03-08T14:35:06;13.10;94.00
5278;DHT22;2662;51.194;6.614;2024-03-08T14:37:33;13.20;94.60
5278;DHT22;2662;51.194;6.614;2024-03-08T14:40:00;13.30;95.70
5278;DHT22;2662;51.194;6.614;2024-03-08T14:42:33;13.40;95.20
5278;DHT22;2662;51.194;6.614;2024-03-08T14:45:00;13.40;93.80
5278;DHT22;2662;51.194;6.614;2024-03-08T14:47:27;13.40;95.20
5278;DHT22;2662;51.194;6.614;2024-03-08T14:49:54;13.30;95.20
5278;DHT22;2662;51.194;6.614;2024-03-08T14:52:22;13.20;95.80
5278;DHT22;2662;51.194;6.614;2024-03-08T14:54:55;13.20;95.00
5278;DHT22;2662;51.194;6.614;2024-03-08T14:57:26;13.20;96.10
5278;DHT22;2662;51.194;6.614;2024-03-08T14:59:55;13.20;95.20
5278;DHT22;2662;51.194;6.614;2024-03-08T15:02:22;13.10;94.90
5278;DHT22;2662;51.194;6.614;2024-03-08T15:04:49;13.20;95.40
5278;DHT22;2662;51.194;6.614;2024-03-08T15:07:23;13.20;95.80
5278;DHT22;2662;51.194;6.614;2024-03-08T15:09:49;13.20;96.60
5278;DHT22;2662;51.194;6.614;2024-03-08T15:12:17;13.10;96.00
5278;DHT22;2662;51.194;6.614;2024-03-08T15:14:48;13.00;96.00
5278;DHT22;2662;51.194;6.614;2024-03-08T15:17:18;13.10;97.20
5278;DHT22;2662;51.194;6.614;2024-03-08T15:19:47;13.20;96.40
5278;DHT22;2662;51.194;6.614;2024-03-08T15:22:14;13.10;94.60
5278;DHT22;2662;51.194;6.614;2024-03-08T15:24:43;12.90;95.10
5278;DHT22;2662;51.194;6.614;2024-03-08T15:27:11;12.90;95.30
5278;DHT22;2662;51.194;6.614;2024-03-08T15:29:38;12.80;95.60
5278;DHT22;2662;51.194;6.614;2024-03-08T15:32:05;12.90;95.50
5278;DHT22;2662;51.194;6.614;2024-03-08T15:34:36;12.90;96.20
5278;DHT22;2662;51.194;6.614;2024-03-08T15:37:04;12.80;95.00
5278;DHT22;2662;51.194;6.614;2024-03-08T15:39:32;12.80;95.70
5278;DHT22;2662;51.194;6.614;2024-03-08T15:41:59;12.80;96.00
5278;DHT22;2662;51.194;6.614;2024-03-08T15:44:31;12.70;95.80
5278;DHT22;2662;51.194;6.614;2024-03-08T15:46:58;12.80;96.40
5278;DHT22;2662;51.194;6.614;2024-03-08T15:49:26;12.70;96.20
5278;DHT22;2662;51.194;6.614;2024-03-08T15:51:55;12.60;96.50
5278;DHT22;2662;51.194;6.614;2024-03-08T15:54:22;12.60;97.30
5278;DHT22;2662;51.194;6.614;2024-03-08T15:56:50;12.50;96.60
5278;DHT22;2662;51.194;6.614;2024-03-08T15:59:17;12.50;96.00
5278;DHT22;2662;51.194;6.614;2024-03-08T16:01:44;12.50;96.90
5278;DHT22;2662;51.194;6.614;2024-03-08T16:04:14;12.40;97.20
5278;DHT22;2662;51.194;6.614;2024-03-08T16:06:41;12.40;96.60
5278;DHT22;2662;51.194;6.614;2024-03-08T16:09:11;12.30;95.80
5278;DHT22;2662;51.194;6.614;2024-03-08T16:11:42;12.20;96.00
5278;DHT22;2662;51.194;6.614;2024-03-08T16:14:09;12.10;96.10
5278;DHT22;2662;51.194;6.614;2024-03-08T16:16:40;12.20;97.70
5278;DHT22;2662;51.194;6.614;2024-03-08T16:19:07;12.20;97.20